Bristers, Mississippi
Current Conditions -  °F | °C
As of 6:15 PM on Friday 24 Oct 2014 (Local Time) from K1R7 Reporting Station
Clear Clear  
Wind Chill: 68°   Ceiling: Unl
Heat Index: 68°   Visibility: 9mi
Dew Point: 48°   Wind: 3mph
Humidity: 49%   Direction: 320°NW
Pressure: 30.1"   Gusts: NA
Location:  31.4096°N, 90.1856°W
Report Text: K1R7 242315Z AUTO 32003KT 9SM CLR 20/09 A3010 RMK AO2
Loading
Personal Weather Stations






























Interactive Weather Map
Tropical Storm Tracking
New forecast layout! Learn more

10-Day Weather Forecast

Advertisements
Track Severe Weather on mobile